KBVY

Beverly Regional Airport

Beverly, Massachusetts, USA
METAR KBVY 181353Z 23011KT 10SM FEW036 SCT110 26/23 A2979 RMK AO2 RAB01E11 SLP082 P0000 T02610228
Observed Flight Rules
Aug-18 @ 13:53 UTC (58 minutes ago) Visual Flight Rules
Wind Visibility Clouds
230° at 11 knots 10 miles
  • Few at 3,600' AGL
  • Scattered at 11,000' AGL
Temperatures Readings Precipitation
Current 26°C / 79°F
Dewpoint 23°C / 73°F
Humidity 84%
Altimeter 29.79" Hg
Pressure 1008.2 hPa
Elevation 28
Current Rain 0.005
METAR KBVY 181353Z 23011KT 10SM FEW036 SCT110 26/23 A2979 RMK AO2 RAB01E11 SLP082 P0000 T02610228
Observed Flight Rules
Aug-18 @ 13:53 UTC
(58 minutes ago)
VFR
Wind Visibility
230° at 11 knots 10 miles
Clouds
  • Few at 3,600' AGL
  • Scattered at 11,000' AGL
Temperature Dewpoint
26°C / 79°F 23°C / 73°F
Humidity Altimeter Pressure
84% 29.79" Hg 1008.2 hPa
Current Rain
0.005